Alpedrete, Spain
Current Conditions -  °F | °C
As of 11:30 AM on Sunday 21 Dec 2014 (Local Time) from LEVS Reporting Station
Clear Clear  
Wind Chill: 50°   Ceiling: Unl
Heat Index: 50°   Visibility: 6mi
Dew Point: 39°   Wind: 2mph
Humidity: 66%   Direction: NA
Pressure: 30.53"   Gusts: NA
Location:  40.66°N, 4.03°W
Report Text: LEVS 211030Z VRB02KT CAVOK 10/04 Q1034
Loading
Personal Weather Stations






























Interactive Weather Map New forecast layout! Learn more

10-Day Weather Forecast

Advertisements
Track Severe Weather on mobile